Time;durP1;ratioP1;P1;durP2;ratioP2;P2;SDS_P1;SDS_P2;PMS_P1;PMS_P2;Temp;Humidity;BMP_temperature;BMP_pressure;BME280_temperature;BME280_humidity;BME280_pressure;Samples;Min_cycle;Max_cycle;Signal;HPM_P1;HPM_P2
2024/04/20 00:00:12;;;;;;;0.93;0.63;;;21.40;58.70;;;;;;5398912;26;85860;-60
2024/04/20 00:02:39;;;;;;;0.70;0.60;;;21.40;58.50;;;;;;5369094;26;87793;-60
2024/04/20 00:05:05;;;;;;;1.17;0.65;;;21.40;58.60;;;;;;5357647;26;87304;-60
2024/04/20 00:07:31;;;;;;;1.77;0.98;;;21.40;58.50;;;;;;5360108;26;85732;-59
2024/04/20 00:09:58;;;;;;;3.20;1.00;;;21.40;58.50;;;;;;5398546;26;86853;-61
2024/04/20 00:12:24;;;;;;;0.98;0.60;;;21.40;58.40;;;;;;5401306;26;86100;-59
2024/04/20 00:14:52;;;;;;;1.25;0.70;;;21.40;58.80;;;;;;5400871;26;86261;-59
2024/04/20 00:17:19;;;;;;;1.17;0.70;;;21.30;58.60;;;;;;5368151;26;86104;-59
2024/04/20 00:19:45;;;;;;;1.63;0.73;;;21.30;58.70;;;;;;5367591;26;86309;-59
2024/04/20 00:22:12;;;;;;;1.42;0.90;;;21.30;58.50;;;;;;5399566;26;87701;-59
2024/04/20 00:24:38;;;;;;;1.02;0.60;;;21.30;58.70;;;;;;5369911;26;87949;-60
2024/04/20 00:27:05;;;;;;;1.25;0.70;;;21.30;58.60;;;;;;5367622;26;85600;-60
2024/04/20 00:29:31;;;;;;;4.05;1.48;;;21.30;58.80;;;;;;5366354;26;86825;-60
2024/04/20 00:31:57;;;;;;;4.88;1.20;;;21.30;58.70;;;;;;5366478;26;87457;-60
2024/04/20 00:34:24;;;;;;;1.40;1.00;;;21.30;58.70;;;;;;5368130;26;85761;-60
2024/04/20 00:36:51;;;;;;;2.47;0.98;;;21.20;58.70;;;;;;5367818;25;85889;-60
2024/04/20 00:39:17;;;;;;;1.73;0.60;;;21.20;58.70;;;;;;5356731;26;90929;-60
2024/04/20 00:41:49;;;;;;;1.40;0.60;;;21.20;58.70;;;;;;5331498;26;86595;-60
2024/04/20 00:44:16;;;;;;;2.85;0.75;;;21.20;58.50;;;;;;5396787;26;87256;-60
2024/04/20 00:46:45;;;;;;;0.90;0.63;;;21.20;58.60;;;;;;5339792;26;86928;-60
2024/04/20 00:49:12;;;;;;;0.93;0.60;;;21.20;58.60;;;;;;5400038;26;86343;-59
2024/04/20 00:51:38;;;;;;;1.13;0.75;;;21.20;58.50;;;;;;5395019;26;86600;-60
2024/04/20 00:54:05;;;;;;;1.20;0.80;;;21.20;58.60;;;;;;5399754;25;87076;-60
2024/04/20 00:56:32;;;;;;;0.85;0.60;;;21.10;58.60;;;;;;5368144;26;85796;-60
2024/04/20 00:58:58;;;;;;;4.28;0.73;;;21.20;58.70;;;;;;5367458;26;87349;-60
2024/04/20 01:01:24;;;;;;;2.15;0.70;;;21.10;58.70;;;;;;5387586;26;86787;-60
2024/04/20 01:03:50;;;;;;;1.42;0.75;;;21.10;58.70;;;;;;5366821;26;86535;-60
2024/04/20 01:06:16;;;;;;;1.65;0.50;;;21.10;59.30;;;;;;5366096;26;85714;-59
2024/04/20 01:08:42;;;;;;;2.17;0.95;;;21.10;58.60;;;;;;5364432;26;86177;-60
2024/04/20 01:11:08;;;;;;;2.95;1.20;;;21.10;58.60;;;;;;5325955;26;86826;-60
2024/04/20 01:13:34;;;;;;;3.03;0.93;;;21.10;58.80;;;;;;5365455;26;86688;-60
2024/04/20 01:16:00;;;;;;;1.48;0.50;;;21.10;58.70;;;;;;5333808;26;85729;-60
2024/04/20 01:18:26;;;;;;;2.30;0.93;;;21.10;58.60;;;;;;5366839;26;86258;-60
2024/04/20 01:20:51;;;;;;;0.80;0.45;;;21.10;58.60;;;;;;5365182;26;87018;-59
2024/04/20 01:23:18;;;;;;;2.72;0.82;;;21.10;58.60;;;;;;5333912;26;86588;-60
2024/04/20 01:25:49;;;;;;;1.52;0.82;;;21.00;58.50;;;;;;5334066;26;86393;-59
2024/04/20 01:28:16;;;;;;;2.05;1.17;;;21.00;58.70;;;;;;5365909;26;85891;-60
2024/04/20 01:30:42;;;;;;;2.15;0.65;;;21.00;58.70;;;;;;5367255;26;86653;-60
2024/04/20 01:33:08;;;;;;;2.22;0.77;;;21.00;58.60;;;;;;5334027;26;87410;-60
2024/04/20 01:35:34;;;;;;;2.00;0.77;;;21.00;58.60;;;;;;5372615;26;87237;-60
2024/04/20 01:38:00;;;;;;;1.15;0.68;;;21.00;58.50;;;;;;5365644;26;86319;-59
2024/04/20 01:40:26;;;;;;;1.20;0.73;;;21.00;58.50;;;;;;5365439;26;86718;-60
2024/04/20 01:42:52;;;;;;;1.40;0.63;;;21.00;58.40;;;;;;5334204;26;87587;-58
2024/04/20 01:45:18;;;;;;;0.90;0.50;;;21.00;58.60;;;;;;5372041;26;86008;-60
2024/04/20 01:47:44;;;;;;;1.40;0.50;;;21.00;58.50;;;;;;5362204;26;85842;-59
2024/04/20 01:50:11;;;;;;;1.33;0.77;;;21.00;58.60;;;;;;5361994;26;86035;-60
2024/04/20 01:52:36;;;;;;;1.10;0.73;;;20.90;58.50;;;;;;5400095;26;86939;-60
2024/04/20 01:55:02;;;;;;;0.73;0.70;;;20.90;58.50;;;;;;5366423;26;85495;-60
2024/04/20 01:57:28;;;;;;;0.65;0.50;;;20.90;58.30;;;;;;5366907;26;85571;-60
2024/04/20 01:59:54;;;;;;;2.28;1.20;;;20.90;58.50;;;;;;5332738;26;88147;-59
2024/04/20 02:02:21;;;;;;;1.20;0.70;;;20.90;58.50;;;;;;5333376;26;87479;-61
2024/04/20 02:04:48;;;;;;;1.38;0.73;;;21.00;58.60;;;;;;5399854;26;85993;-59
2024/04/20 02:07:14;;;;;;;1.20;0.73;;;20.90;58.50;;;;;;5401349;26;87309;-59
2024/04/20 02:09:42;;;;;;;3.38;0.70;;;20.90;58.40;;;;;;5400623;26;86688;-60
2024/04/20 02:12:08;;;;;;;1.15;0.52;;;20.90;58.40;;;;;;5399447;26;85901;-60
2024/04/20 02:14:34;;;;;;;1.58;0.70;;;20.90;58.50;;;;;;5398642;26;85388;-61
2024/04/20 02:16:59;;;;;;;1.25;0.70;;;20.90;58.70;;;;;;5399282;26;85904;-60
2024/04/20 02:19:25;;;;;;;1.30;1.00;;;20.90;58.50;;;;;;5398190;26;86632;-59
2024/04/20 02:21:51;;;;;;;0.68;0.45;;;20.80;58.40;;;;;;5399993;26;86514;-60
2024/04/20 02:24:17;;;;;;;1.27;0.73;;;20.80;58.60;;;;;;5363986;26;86800;-60
2024/04/20 02:26:42;;;;;;;1.67;0.80;;;20.80;58.50;;;;;;5397056;26;86066;-60
2024/04/20 02:29:08;;;;;;;2.72;0.63;;;20.80;58.40;;;;;;5367229;26;87180;-60
2024/04/20 02:31:35;;;;;;;1.48;0.50;;;20.80;58.30;;;;;;5336886;26;86571;-60
2024/04/20 02:34:01;;;;;;;1.70;1.27;;;20.80;58.60;;;;;;5328072;26;86291;-59
2024/04/20 02:36:27;;;;;;;1.15;0.57;;;20.80;58.50;;;;;;5361996;26;86486;-59
2024/04/20 02:38:54;;;;;;;0.73;0.57;;;20.80;58.60;;;;;;5399302;26;86745;-60
2024/04/20 02:41:20;;;;;;;1.05;0.60;;;20.80;58.60;;;;;;5395483;26;85564;-60
2024/04/20 02:43:47;;;;;;;1.02;0.77;;;20.80;58.50;;;;;;5399348;26;85488;-59
2024/04/20 02:46:13;;;;;;;1.50;0.60;;;20.70;58.60;;;;;;5365842;25;86101;-60
2024/04/20 02:48:38;;;;;;;1.67;0.65;;;20.70;58.50;;;;;;5365886;26;87676;-60
2024/04/20 02:51:05;;;;;;;2.53;0.75;;;20.80;58.60;;;;;;5364331;26;87475;-60
2024/04/20 02:53:31;;;;;;;1.17;0.60;;;20.80;58.60;;;;;;5326006;26;86101;-60
2024/04/20 02:55:57;;;;;;;3.33;0.73;;;20.70;58.40;;;;;;5331343;26;86037;-60
2024/04/20 02:58:24;;;;;;;1.77;0.77;;;20.80;58.40;;;;;;5332163;26;85959;-60
2024/04/20 03:01:00;;;;;;;2.20;0.60;;;20.70;58.30;;;;;;5332847;26;87318;-60
2024/04/20 03:03:30;;;;;;;0.73;0.60;;;20.70;58.50;;;;;;5365575;26;85804;-59
2024/04/20 03:05:56;;;;;;;1.48;0.75;;;20.70;58.40;;;;;;5329592;26;85622;-59
2024/04/20 03:08:23;;;;;;;0.65;0.55;;;20.70;58.40;;;;;;5365752;26;86636;-60
2024/04/20 03:10:49;;;;;;;0.95;0.52;;;20.70;58.30;;;;;;5364798;26;86342;-59
2024/04/20 03:13:15;;;;;;;2.05;1.00;;;20.70;58.30;;;;;;5363392;26;86773;-59
2024/04/20 03:15:41;;;;;;;2.35;0.50;;;20.70;58.30;;;;;;5365882;26;85928;-59
2024/04/20 03:18:09;;;;;;;1.75;0.90;;;20.70;58.40;;;;;;5332582;26;86756;-59
2024/04/20 03:20:35;;;;;;;1.08;0.60;;;20.70;58.30;;;;;;5332048;26;86633;-60
2024/04/20 03:23:01;;;;;;;0.98;0.52;;;20.70;58.30;;;;;;5368148;26;86301;-59
2024/04/20 03:25:27;;;;;;;1.33;0.70;;;20.70;58.30;;;;;;5366946;26;85981;-60
2024/04/20 03:27:53;;;;;;;1.13;0.70;;;20.70;58.40;;;;;;5371951;25;86510;-59
2024/04/20 03:30:19;;;;;;;2.95;0.85;;;20.70;58.20;;;;;;5335862;26;87193;-59
2024/04/20 03:32:45;;;;;;;1.05;0.75;;;20.70;58.40;;;;;;5335452;26;85961;-60
2024/04/20 03:35:11;;;;;;;0.93;0.82;;;20.70;58.30;;;;;;5368462;26;85458;-60
2024/04/20 03:37:36;;;;;;;1.75;0.90;;;20.60;58.40;;;;;;5366849;26;87710;-61
2024/04/20 03:40:02;;;;;;;0.63;0.50;;;20.70;58.40;;;;;;5335839;26;87349;-60
2024/04/20 03:42:29;;;;;;;1.17;0.70;;;20.70;58.20;;;;;;5394374;25;85766;-60
2024/04/20 03:44:54;;;;;;;0.73;0.50;;;20.60;58.20;;;;;;5399218;26;86334;-60
2024/04/20 03:47:21;;;;;;;1.65;0.73;;;20.60;58.30;;;;;;5400648;26;87240;-60
2024/04/20 03:49:47;;;;;;;2.30;0.95;;;20.70;58.50;;;;;;5369891;26;87787;-60
2024/04/20 03:52:12;;;;;;;2.30;1.00;;;20.60;58.30;;;;;;5395558;26;86424;-60
2024/04/20 03:54:38;;;;;;;0.85;0.65;;;20.60;58.30;;;;;;5400679;26;85621;-60
2024/04/20 03:57:05;;;;;;;1.88;0.90;;;20.60;58.30;;;;;;5370161;26;86974;-59
2024/04/20 03:59:32;;;;;;;1.48;0.80;;;20.60;58.30;;;;;;5368044;26;89265;-60
2024/04/20 04:01:58;;;;;;;2.45;0.68;;;20.60;58.50;;;;;;5403304;26;87266;-59
2024/04/20 04:04:24;;;;;;;0.73;0.60;;;20.60;58.40;;;;;;5401999;26;86122;-59
2024/04/20 04:06:50;;;;;;;0.68;0.50;;;20.60;58.30;;;;;;5402021;26;86767;-59
2024/04/20 04:09:16;;;;;;;0.70;0.50;;;20.50;58.30;;;;;;5403485;26;86660;-60
2024/04/20 04:11:43;;;;;;;0.93;0.60;;;20.50;58.30;;;;;;5343261;26;86093;-60
2024/04/20 04:14:09;;;;;;;1.20;0.75;;;20.50;58.30;;;;;;5371490;26;86196;-60
2024/04/20 04:16:35;;;;;;;1.35;0.50;;;20.50;58.40;;;;;;5404213;26;86841;-60
2024/04/20 04:19:01;;;;;;;1.90;0.82;;;20.50;58.20;;;;;;5401903;26;86403;-59
2024/04/20 04:21:27;;;;;;;1.63;0.82;;;20.50;58.90;;;;;;5404722;26;85958;-60
2024/04/20 04:23:53;;;;;;;1.20;0.95;;;20.50;58.20;;;;;;5333827;26;88321;-60
2024/04/20 04:26:20;;;;;;;1.65;0.50;;;20.50;58.20;;;;;;5357158;26;88611;-60
2024/04/20 04:28:46;;;;;;;2.08;0.63;;;20.50;58.30;;;;;;5369248;26;89223;-61
2024/04/20 04:31:12;;;;;;;1.10;0.60;;;20.50;58.20;;;;;;5367444;26;85631;-60
2024/04/20 04:33:38;;;;;;;1.50;0.70;;;20.50;58.10;;;;;;5366920;26;87574;-60
2024/04/20 04:36:04;;;;;;;1.17;0.77;;;20.50;58.10;;;;;;5335368;26;87815;-60
2024/04/20 04:38:31;;;;;;;1.13;0.60;;;20.50;58.30;;;;;;5395043;25;86608;-60
2024/04/20 04:40:57;;;;;;;0.98;0.50;;;20.50;58.20;;;;;;5354278;26;85918;-60
2024/04/20 04:43:23;;;;;;;1.08;0.60;;;20.50;58.30;;;;;;5368516;26;85692;-60
2024/04/20 04:45:48;;;;;;;1.50;0.80;;;20.50;58.30;;;;;;5368708;26;86451;-60
2024/04/20 04:48:18;;;;;;;0.80;0.50;;;20.50;58.30;;;;;;5367580;26;85874;-60
2024/04/20 04:50:44;;;;;;;1.63;0.50;;;20.50;58.20;;;;;;5337558;26;87621;-59
2024/04/20 04:53:11;;;;;;;2.70;0.80;;;20.40;58.30;;;;;;5368488;26;85896;-60
2024/04/20 04:55:37;;;;;;;1.00;0.50;;;20.50;58.20;;;;;;5336124;26;87509;-60
2024/04/20 04:58:02;;;;;;;1.45;0.73;;;20.40;58.10;;;;;;5368517;26;85959;-59
2024/04/20 05:00:28;;;;;;;2.38;0.93;;;20.40;58.10;;;;;;5368922;26;86190;-60
2024/04/20 05:02:54;;;;;;;0.50;0.50;;;20.40;58.10;;;;;;5336450;26;86071;-60
2024/04/20 05:05:20;;;;;;;1.15;0.63;;;20.40;58.00;;;;;;5326909;26;86304;-60
2024/04/20 05:07:46;;;;;;;1.67;0.60;;;20.40;58.10;;;;;;5366609;26;85934;-61
2024/04/20 05:10:12;;;;;;;0.88;0.60;;;20.40;58.10;;;;;;5367510;26;86197;-59
2024/04/20 05:12:38;;;;;;;0.60;0.50;;;20.40;58.10;;;;;;5367343;26;86603;-60
2024/04/20 05:15:04;;;;;;;0.88;0.50;;;20.40;58.10;;;;;;5335633;26;88212;-59
2024/04/20 05:17:31;;;;;;;2.03;0.50;;;20.40;58.00;;;;;;5366442;26;87510;-59
2024/04/20 05:19:57;;;;;;;0.93;0.60;;;20.40;57.90;;;;;;5370682;25;86201;-60
2024/04/20 05:22:23;;;;;;;1.67;0.70;;;20.40;58.00;;;;;;5364919;26;87885;-60
2024/04/20 05:24:48;;;;;;;0.50;0.50;;;20.40;58.00;;;;;;5366588;26;86491;-60
2024/04/20 05:27:15;;;;;;;1.17;0.60;;;20.40;58.10;;;;;;5366528;26;86699;-60
2024/04/20 05:29:41;;;;;;;2.42;1.05;;;20.40;58.00;;;;;;5367687;26;85498;-60
2024/04/20 05:32:07;;;;;;;1.75;0.98;;;20.40;58.00;;;;;;5336093;26;86428;-60
2024/04/20 05:34:34;;;;;;;1.58;0.88;;;20.40;58.10;;;;;;5391687;25;86710;-59
2024/04/20 05:36:59;;;;;;;2.75;0.50;;;20.40;58.10;;;;;;5401091;26;86361;-60
2024/04/20 05:39:25;;;;;;;4.38;1.25;;;20.40;58.00;;;;;;5340848;26;86929;-59
2024/04/20 05:41:51;;;;;;;1.83;0.63;;;20.40;57.90;;;;;;5401317;26;86191;-60
2024/04/20 05:44:17;;;;;;;1.50;0.50;;;20.40;58.00;;;;;;5368338;26;87244;-60
2024/04/20 05:46:43;;;;;;;1.75;0.93;;;20.40;58.00;;;;;;5367139;26;88487;-60
2024/04/20 05:49:10;;;;;;;0.88;0.60;;;20.40;57.90;;;;;;5368085;26;85711;-60
2024/04/20 05:51:35;;;;;;;1.40;0.60;;;20.40;57.80;;;;;;5402282;26;86330;-58
2024/04/20 05:54:01;;;;;;;0.55;0.55;;;20.40;57.90;;;;;;5398417;26;86523;-60
2024/04/20 05:56:27;;;;;;;3.05;0.77;;;20.40;57.90;;;;;;5369728;26;87809;-60
2024/04/20 05:58:53;;;;;;;1.98;0.63;;;20.30;58.50;;;;;;5369008;26;85868;-60
2024/04/20 06:01:18;;;;;;;1.55;0.73;;;20.30;57.90;;;;;;5368985;26;87238;-60
2024/04/20 06:03:44;;;;;;;0.80;0.52;;;20.40;57.80;;;;;;5369715;26;87519;-60
2024/04/20 06:06:10;;;;;;;1.13;0.63;;;20.30;57.70;;;;;;5401758;26;86755;-59
2024/04/20 06:08:36;;;;;;;1.00;0.80;;;20.40;57.70;;;;;;5400969;26;85748;-60
2024/04/20 06:11:02;;;;;;;2.63;1.02;;;20.30;57.80;;;;;;5340204;26;86449;-60
2024/04/20 06:13:28;;;;;;;0.82;0.60;;;20.30;57.70;;;;;;5401238;26;86666;-60
2024/04/20 06:15:54;;;;;;;0.95;0.63;;;20.30;57.70;;;;;;5357097;26;86954;-59
2024/04/20 06:18:20;;;;;;;1.88;0.80;;;20.30;57.70;;;;;;5367459;26;85839;-61
2024/04/20 06:20:51;;;;;;;1.85;0.70;;;20.40;57.30;;;;;;5335940;26;86406;-60
2024/04/20 06:23:19;;;;;;;1.83;0.82;;;20.70;56.60;;;;;;5367690;26;87219;-60
2024/04/20 06:25:45;;;;;;;1.70;0.90;;;20.90;56.00;;;;;;5335541;26;86758;-60
2024/04/20 06:28:11;;;;;;;2.90;0.90;;;21.30;55.50;;;;;;5335490;26;86526;-59
2024/04/20 06:30:37;;;;;;;5.45;1.00;;;21.60;54.60;;;;;;5355413;26;85933;-60
2024/04/20 06:33:03;;;;;;;3.40;1.00;;;21.80;53.80;;;;;;5365291;26;89611;-60
2024/04/20 06:35:29;;;;;;;2.90;1.05;;;22.10;53.60;;;;;;5368515;26;87088;-60
2024/04/20 06:37:56;;;;;;;2.00;1.40;;;22.20;53.10;;;;;;5334209;26;85879;-61
2024/04/20 06:40:21;;;;;;;4.25;1.20;;;22.30;53.10;;;;;;5331877;26;86526;-60
2024/04/20 06:42:48;;;;;;;2.42;0.75;;;22.50;52.70;;;;;;5367641;26;87428;-60
2024/04/20 06:45:15;;;;;;;1.27;0.63;;;22.40;53.10;;;;;;5367242;26;85117;-60
2024/04/20 06:47:41;;;;;;;5.05;0.80;;;22.50;53.20;;;;;;5361448;26;86346;-60
2024/04/20 06:50:11;;;;;;;4.53;1.48;;;22.60;52.60;;;;;;5363368;26;86733;-60
2024/04/20 06:52:37;;;;;;;3.67;1.10;;;22.60;52.40;;;;;;5365564;26;87572;-60
2024/04/20 06:55:04;;;;;;;3.20;1.13;;;22.70;52.50;;;;;;5334240;26;87982;-60
2024/04/20 06:57:31;;;;;;;2.95;0.80;;;22.70;52.50;;;;;;5336840;26;86040;-60
2024/04/20 06:59:59;;;;;;;1.65;0.82;;;22.80;52.60;;;;;;5335268;26;86982;-60
2024/04/20 07:02:26;;;;;;;1.13;0.93;;;22.70;52.60;;;;;;5358639;25;85724;-60
2024/04/20 07:04:52;;;;;;;3.85;1.00;;;22.70;52.80;;;;;;5367922;26;86452;-60
2024/04/20 07:07:19;;;;;;;1.98;1.00;;;22.70;53.60;;;;;;5363538;26;85839;-59
2024/04/20 07:09:48;;;;;;;3.50;1.40;;;22.70;53.00;;;;;;5367369;26;85902;-59
2024/04/20 07:12:14;;;;;;;0.85;0.77;;;22.70;53.10;;;;;;5365049;26;86846;-60
2024/04/20 07:14:40;;;;;;;1.42;0.68;;;22.60;53.20;;;;;;5330553;26;89496;-60
2024/04/20 07:17:07;;;;;;;3.42;0.95;;;22.60;53.30;;;;;;5364883;26;86804;-60
2024/04/20 07:19:33;;;;;;;2.00;0.80;;;22.60;53.40;;;;;;5327550;26;87272;-59
2024/04/20 07:21:59;;;;;;;3.47;1.00;;;22.60;53.30;;;;;;5333753;26;87185;-58
2024/04/20 07:24:25;;;;;;;4.20;1.10;;;22.60;53.50;;;;;;5367751;26;86925;-59
2024/04/20 07:26:51;;;;;;;3.47;1.08;;;22.60;53.70;;;;;;5334051;26;86101;-60
2024/04/20 07:29:17;;;;;;;3.45;0.80;;;22.60;53.50;;;;;;5335091;26;86889;-60
2024/04/20 07:31:45;;;;;;;3.13;1.45;;;22.60;53.60;;;;;;5366119;26;87199;-60
2024/04/20 07:34:11;;;;;;;2.42;0.90;;;22.60;53.70;;;;;;5366717;26;88340;-60
2024/04/20 07:36:37;;;;;;;1.25;0.85;;;22.70;53.50;;;;;;5335125;26;86181;-60
2024/04/20 07:39:03;;;;;;;4.32;1.15;;;22.70;53.60;;;;;;5364833;26;86144;-60
2024/04/20 07:41:29;;;;;;;7.97;1.73;;;22.70;53.70;;;;;;5364317;26;87586;-59
2024/04/20 07:43:59;;;;;;;2.20;1.15;;;22.70;53.70;;;;;;5334353;26;88053;-60
2024/04/20 07:46:25;;;;;;;3.17;1.15;;;22.60;53.70;;;;;;5366922;26;85921;-59
2024/04/20 07:48:50;;;;;;;4.53;1.50;;;22.60;53.80;;;;;;5334782;26;86509;-60
2024/04/20 07:51:16;;;;;;;3.45;1.35;;;22.70;53.60;;;;;;5365103;26;92550;-60
2024/04/20 07:53:42;;;;;;;8.57;1.20;;;22.70;53.60;;;;;;5333948;26;87012;-60
2024/04/20 07:56:08;;;;;;;2.95;1.13;;;22.70;53.10;;;;;;5394492;26;85941;-60
2024/04/20 07:58:34;;;;;;;9.20;1.88;;;22.70;53.60;;;;;;5387688;25;87135;-59
2024/04/20 08:01:00;;;;;;;6.82;2.25;;;22.70;53.40;;;;;;5364523;26;86729;-60
2024/04/20 08:03:26;;;;;;;6.13;1.60;;;22.70;53.50;;;;;;5336738;25;85909;-60
2024/04/20 08:05:52;;;;;;;5.75;1.75;;;22.80;53.50;;;;;;5356983;26;87307;-60
2024/04/20 08:08:18;;;;;;;6.05;1.70;;;22.70;53.50;;;;;;5387130;25;86473;-59
2024/04/20 08:10:44;;;;;;;5.05;1.92;;;22.80;53.50;;;;;;5365473;26;86290;-60
2024/04/20 08:13:10;;;;;;;7.78;2.22;;;22.70;52.50;;;;;;5333627;26;87399;-60
2024/04/20 08:15:37;;;;;;;8.35;3.03;;;22.80;52.30;;;;;;5345774;26;86011;-60
2024/04/20 08:18:05;;;;;;;4.05;1.42;;;22.70;51.10;;;;;;5349454;26;86181;-61
2024/04/20 08:20:30;;;;;;;11.15;3.00;;;22.70;51.80;;;;;;5398073;26;88709;-59
2024/04/20 08:22:56;;;;;;;5.85;2.42;;;22.70;52.00;;;;;;5342726;26;88458;-60
2024/04/20 08:25:22;;;;;;;4.18;2.22;;;22.70;52.00;;;;;;5332556;26;85928;-60
2024/04/20 08:27:48;;;;;;;5.78;2.05;;;22.70;52.00;;;;;;5366596;26;85788;-60
2024/04/20 08:30:14;;;;;;;11.40;2.42;;;22.70;52.00;;;;;;5332428;26;89839;-59
2024/04/20 08:32:40;;;;;;;7.80;2.60;;;22.70;52.00;;;;;;5367968;26;87206;-59
2024/04/20 08:35:07;;;;;;;11.40;2.60;;;22.70;52.00;;;;;;5336533;26;85394;-60
2024/04/20 08:37:36;;;;;;;4.72;1.92;;;22.70;52.20;;;;;;5337017;26;86704;-60
2024/04/20 08:40:02;;;;;;;;;;;22.70;52.40;;;;;;5364881;26;86734;-60
2024/04/20 08:42:35;;;;;;;5.32;1.52;;;22.80;52.20;;;;;;5366965;26;87754;-59
2024/04/20 08:45:03;;;;;;;7.97;2.53;;;22.70;52.30;;;;;;5364265;26;86465;-61
2024/04/20 08:47:31;;;;;;;6.15;2.15;;;22.70;52.30;;;;;;5363814;26;86722;-60
2024/04/20 08:49:58;;;;;;;10.35;2.80;;;22.80;52.30;;;;;;5362045;26;86617;-60
2024/04/20 08:52:26;;;;;;;6.65;2.42;;;22.80;52.20;;;;;;5362904;26;87143;-60
2024/04/20 08:54:54;;;;;;;5.75;1.45;;;22.70;53.10;;;;;;5394376;25;87172;-59
2024/04/20 08:57:22;;;;;;;12.00;3.22;;;22.80;52.50;;;;;;5367741;26;86130;-60
2024/04/20 08:59:49;;;;;;;16.60;3.83;;;22.70;51.60;;;;;;5399273;26;87493;-60
2024/04/20 09:02:24;;;;;;;15.38;4.47;;;22.80;51.20;;;;;;5392247;26;87656;-60
2024/04/20 09:04:51;;;;;;;16.15;3.33;;;22.70;51.40;;;;;;5363601;26;85849;-61
2024/04/20 09:07:17;;;;;;;14.18;4.07;;;22.70;50.80;;;;;;5363210;26;86105;-60
2024/04/20 09:09:43;;;;;;;16.00;3.22;;;22.70;50.80;;;;;;5402378;26;86597;-60
2024/04/20 09:12:09;;;;;;;15.52;4.10;;;22.70;50.60;;;;;;5369190;26;87816;-60
2024/04/20 09:14:35;;;;;;;16.33;3.60;;;22.60;50.50;;;;;;5402446;26;85627;-60
2024/04/20 09:17:01;;;;;;;13.68;3.03;;;22.70;50.50;;;;;;5401581;26;86287;-59
2024/04/20 09:19:26;;;;;;;12.98;4.07;;;22.70;50.40;;;;;;5399358;26;87536;-59
2024/04/20 09:21:53;;;;;;;14.23;3.25;;;22.70;50.60;;;;;;5334924;26;89346;-60
2024/04/20 09:24:19;;;;;;;12.10;3.50;;;22.70;50.70;;;;;;5368996;26;86430;-60
2024/04/20 09:26:50;;;;;;;8.73;3.33;;;22.70;51.00;;;;;;5398318;26;86337;-61
2024/04/20 09:29:16;;;;;;;9.25;2.78;;;22.80;50.90;;;;;;5366436;26;87940;-69
2024/04/20 09:31:49;;;;;;;11.00;3.60;;;22.70;49.00;;;;;;5404827;25;86033;-66
2024/04/20 09:34:15;;;;;;;11.38;2.75;;;22.70;50.50;;;;;;5399183;25;88361;-67
2024/04/20 09:36:42;;;;;;;14.77;2.70;;;22.80;50.40;;;;;;5342827;26;88204;-67
2024/04/20 09:39:09;;;;;;;11.73;3.28;;;22.80;50.20;;;;;;5339503;25;87218;-66
2024/04/20 09:41:35;;;;;;;13.50;3.47;;;22.80;50.50;;;;;;5345951;25;86982;-64
2024/04/20 09:44:02;;;;;;;11.57;3.58;;;22.80;50.70;;;;;;5399500;25;87345;-65
2024/04/20 09:46:32;;;;;;;13.00;3.30;;;22.80;50.40;;;;;;5405286;25;85977;-65
2024/04/20 09:49:04;;;;;;;6.47;2.50;;;22.80;50.50;;;;;;5409901;25;86667;-66
2024/04/20 09:51:38;;;;;;;8.60;2.83;;;22.80;50.10;;;;;;5370989;26;87041;-57
2024/04/20 09:54:12;;;;;;;9.65;2.15;;;22.80;50.10;;;;;;5376410;26;86837;-56
2024/04/20 09:56:46;;;;;;;8.45;2.92;;;22.90;50.80;;;;;;5389279;25;87725;-60
2024/04/20 09:59:13;;;;;;;8.38;2.38;;;22.90;51.90;;;;;;5378910;25;86617;-60
2024/04/20 10:01:40;;;;;;;8.35;2.85;;;22.90;52.90;;;;;;5354652;26;86621;-59
2024/04/20 10:04:07;;;;;;;27.88;3.38;;;22.90;53.80;;;;;;5341945;26;85873;-59
2024/04/20 10:06:34;;;;;;;6.85;2.72;;;23.00;54.30;;;;;;5382897;25;86092;-58
2024/04/20 10:09:00;;;;;;;7.90;1.70;;;22.90;54.70;;;;;;5389106;25;87483;-60
2024/04/20 10:11:27;;;;;;;7.70;2.05;;;22.90;55.30;;;;;;5376671;26;87313;-59
2024/04/20 10:13:54;;;;;;;8.65;2.20;;;22.90;56.00;;;;;;5320464;25;86980;-59
2024/04/20 10:16:20;;;;;;;8.45;2.60;;;23.00;56.50;;;;;;5353527;26;86833;-60
2024/04/20 10:18:47;;;;;;;5.07;1.85;;;23.00;56.70;;;;;;5345274;25;88093;-59
2024/04/20 10:21:16;;;;;;;8.18;3.00;;;22.90;57.00;;;;;;5342356;25;92403;-59
2024/04/20 10:23:44;;;;;;;7.00;2.13;;;23.00;57.30;;;;;;5331248;25;88271;-60
2024/04/20 10:26:11;;;;;;;11.68;2.35;;;23.00;57.00;;;;;;5336497;26;87115;-60
2024/04/20 10:28:39;;;;;;;6.55;2.03;;;23.00;55.90;;;;;;5368222;26;87043;-64
2024/04/20 10:31:05;;;;;;;6.95;2.60;;;23.00;55.20;;;;;;5359773;26;87947;-64
2024/04/20 10:33:36;;;;;;;4.28;2.00;;;23.00;55.70;;;;;;5364034;26;88451;-66
2024/04/20 10:36:08;;;;;;;8.05;2.15;;;23.00;55.20;;;;;;5347497;26;87251;-64
2024/04/20 10:38:34;;;;;;;7.53;1.90;;;23.00;55.20;;;;;;5363647;26;88328;-64
2024/04/20 10:41:36;;;;;;;5.50;2.05;;;23.00;55.10;;;;;;5377014;26;87029;-62
2024/04/20 10:44:12;;;;;;;7.30;2.10;;;23.10;55.20;;;;;;5315322;26;86076;-63
2024/04/20 10:46:47;;;;;;;12.82;1.65;;;23.20;55.10;;;;;;5374511;26;86422;-64
2024/04/20 10:49:13;;;;;;;8.00;2.22;;;23.10;50.70;;;;;;5380001;26;88237;-64
2024/04/20 10:51:50;;;;;;;8.25;1.98;;;22.90;53.40;;;;;;5341530;26;87369;-63
2024/04/20 10:54:20;;;;;;;6.47;2.13;;;23.00;54.70;;;;;;5337509;26;86267;-66
2024/04/20 10:56:46;;;;;;;11.18;2.70;;;23.00;52.60;;;;;;5366175;26;85932;-62
2024/04/20 10:59:12;;;;;;;5.00;1.65;;;23.10;53.90;;;;;;5368740;26;88172;-61
2024/04/20 11:01:45;;;;;;;9.27;2.88;;;23.10;53.80;;;;;;5328201;26;88199;-60
2024/04/20 11:04:11;;;;;;;7.20;2.08;;;23.10;53.30;;;;;;5333547;26;86258;-63
2024/04/20 11:06:37;;;;;;;6.25;1.95;;;23.10;53.40;;;;;;5335645;26;86135;-60
2024/04/20 11:09:09;;;;;;;4.38;1.48;;;23.10;53.20;;;;;;5369981;26;86654;-60
2024/04/20 11:11:35;;;;;;;9.23;3.17;;;23.00;49.40;;;;;;5337815;26;89560;-60
2024/04/20 11:14:01;;;;;;;8.13;1.40;;;22.70;49.80;;;;;;5329985;26;87243;-61
2024/04/20 11:16:28;;;;;;;6.32;1.67;;;22.50;50.20;;;;;;5339242;26;86966;-60
2024/04/20 11:18:54;;;;;;;3.22;1.58;;;22.30;51.20;;;;;;5379638;26;86659;-60
2024/04/20 11:21:20;;;;;;;5.53;1.52;;;22.20;51.50;;;;;;5374316;26;86580;-60
2024/04/20 11:23:48;;;;;;;5.75;1.70;;;22.10;52.00;;;;;;5374752;26;86977;-60
2024/04/20 11:26:15;;;;;;;7.90;2.03;;;22.10;53.60;;;;;;5331223;26;87971;-62
2024/04/20 11:28:42;;;;;;;7.20;1.55;;;22.40;53.90;;;;;;5359301;26;86502;-61
2024/04/20 11:31:15;;;;;;;7.95;1.52;;;22.60;54.20;;;;;;5371318;26;86618;-60
2024/04/20 11:33:48;;;;;;;3.47;1.13;;;22.80;54.00;;;;;;5323307;26;86220;-60
2024/04/20 11:36:18;;;;;;;9.48;2.08;;;22.90;52.80;;;;;;5339555;26;87131;-60
2024/04/20 11:38:47;;;;;;;4.30;1.92;;;22.90;52.00;;;;;;5376221;26;87280;-61
2024/04/20 11:41:24;;;;;;;7.57;1.85;;;23.00;52.00;;;;;;5323594;26;86618;-60
2024/04/20 11:44:05;;;;;;;9.43;2.40;;;23.00;51.20;;;;;;5340937;26;86101;-61
2024/04/20 11:46:47;;;;;;;6.82;1.55;;;23.00;50.90;;;;;;5345061;26;86629;-59
2024/04/20 11:49:14;;;;;;;6.95;2.10;;;23.10;51.30;;;;;;5345460;26;88571;-60
2024/04/20 11:54:47;;;;;;;8.15;2.28;;;23.10;52.20;;;;;;5361285;26;86070;-60
2024/04/20 11:57:13;;;;;;;13.30;2.90;;;23.10;52.50;;;;;;5333197;26;88936;-60
2024/04/20 11:59:40;;;;;;;14.18;3.33;;;23.10;53.20;;;;;;5325446;26;87685;-59
2024/04/20 12:02:05;;;;;;;8.23;2.80;;;23.20;54.50;;;;;;5336704;26;87695;-59
2024/04/20 12:04:32;;;;;;;6.22;2.67;;;23.20;53.00;;;;;;5372478;26;87227;-60
2024/04/20 12:06:58;;;;;;;8.85;2.75;;;23.20;53.60;;;;;;5370217;26;85666;-59
2024/04/20 12:09:25;;;;;;;11.68;3.42;;;23.10;53.20;;;;;;5378568;26;87343;-60
2024/04/20 12:11:51;;;;;;;7.75;3.17;;;23.20;53.50;;;;;;5330321;26;86339;-60
2024/04/20 12:14:17;;;;;;;9.23;2.75;;;23.20;53.40;;;;;;5341498;26;86872;-60
2024/04/20 12:16:43;;;;;;;8.57;2.33;;;23.20;53.40;;;;;;5338876;26;87022;-59
2024/04/20 12:19:09;;;;;;;6.10;2.58;;;23.20;53.60;;;;;;5339489;26;87690;-60
2024/04/20 12:21:35;;;;;;;8.52;2.40;;;23.20;54.20;;;;;;5340408;26;87118;-59
2024/04/20 12:24:01;;;;;;;8.18;3.53;;;23.20;54.70;;;;;;5381890;26;86245;-59
2024/04/20 12:26:26;;;;;;;8.68;3.47;;;23.20;55.00;;;;;;5338820;26;88350;-60
2024/04/20 12:28:53;;;;;;;9.75;3.50;;;23.20;55.40;;;;;;5331845;26;86247;-59
2024/04/20 12:31:18;;;;;;;7.28;2.95;;;23.20;55.70;;;;;;5341198;26;87819;-59
2024/04/20 12:33:45;;;;;;;8.27;3.65;;;23.30;56.40;;;;;;5338717;26;86144;-59
2024/04/20 12:36:14;;;;;;;5.03;1.73;;;23.30;55.10;;;;;;5363081;26;86144;-60
2024/04/20 12:38:40;;;;;;;4.80;2.65;;;22.90;50.20;;;;;;5363828;26;88165;-59
2024/04/20 12:41:06;;;;;;;6.65;2.53;;;22.90;55.00;;;;;;5364598;26;87480;-59
2024/04/20 12:43:32;;;;;;;11.52;2.70;;;22.90;56.30;;;;;;5365337;26;86099;-60
2024/04/20 12:45:57;;;;;;;8.02;3.22;;;23.00;54.90;;;;;;5331447;26;86764;-60